sensor_id;sensor_type;location;lat;lon;timestamp;pressure;altitude;pressure_sealevel;temperature;humidity
45763;BME280;37512;52.408;13.356;2023-04-15T00:03:30;100081.56;;;7.56;100.00
45763;BME280;37512;52.408;13.356;2023-04-15T00:07:32;100084.81;;;7.61;100.00
45763;BME280;37512;52.408;13.356;2023-04-15T00:11:34;100085.44;;;7.70;100.00
45763;BME280;37512;52.408;13.356;2023-04-15T00:15:35;100080.03;;;7.58;100.00
45763;BME280;37512;52.408;13.356;2023-04-15T00:19:37;100077.91;;;7.51;100.00
45763;BME280;37512;52.408;13.356;2023-04-15T00:23:39;100073.81;;;7.45;100.00
45763;BME280;37512;52.408;13.356;2023-04-15T00:27:41;100073.72;;;7.58;100.00
45763;BME280;37512;52.408;13.356;2023-04-15T00:31:42;100076.97;;;7.63;100.00
45763;BME280;37512;52.408;13.356;2023-04-15T00:35:44;100072.28;;;7.48;100.00
45763;BME280;37512;52.408;13.356;2023-04-15T00:39:48;100070.59;;;7.43;100.00
45763;BME280;37512;52.408;13.356;2023-04-15T00:43:50;100066.78;;;7.48;100.00
45763;BME280;37512;52.408;13.356;2023-04-15T00:47:52;100082.38;;;7.40;100.00
45763;BME280;37512;52.408;13.356;2023-04-15T00:51:54;100062.41;;;7.47;100.00
45763;BME280;37512;52.408;13.356;2023-04-15T00:55:55;100068.53;;;7.56;100.00
45763;BME280;37512;52.408;13.356;2023-04-15T00:59:57;100064.59;;;7.57;100.00
45763;BME280;37512;52.408;13.356;2023-04-15T01:03:59;100072.28;;;7.48;100.00
45763;BME280;37512;52.408;13.356;2023-04-15T01:08:01;100063.31;;;7.51;100.00
45763;BME280;37512;52.408;13.356;2023-04-15T01:12:03;100057.34;;;7.49;100.00
45763;BME280;37512;52.408;13.356;2023-04-15T01:16:05;100055.25;;;7.62;100.00
45763;BME280;37512;52.408;13.356;2023-04-15T01:20:08;100051.53;;;7.54;100.00
45763;BME280;37512;52.408;13.356;2023-04-15T01:24:14;100053.56;;;7.57;100.00
45763;BME280;37512;52.408;13.356;2023-04-15T01:28:18;100048.91;;;7.61;100.00
45763;BME280;37512;52.408;13.356;2023-04-15T01:32:20;100044.13;;;7.58;100.00
45763;BME280;37512;52.408;13.356;2023-04-15T01:36:22;100053.34;;;7.66;100.00
45763;BME280;37512;52.408;13.356;2023-04-15T01:40:23;100042.50;;;7.57;100.00
45763;BME280;37512;52.408;13.356;2023-04-15T01:44:25;100046.31;;;7.68;100.00
45763;BME280;37512;52.408;13.356;2023-04-15T01:48:26;100047.50;;;7.67;100.00
45763;BME280;37512;52.408;13.356;2023-04-15T01:52:28;100046.44;;;7.56;100.00
45763;BME280;37512;52.408;13.356;2023-04-15T01:56:29;100050.97;;;7.64;100.00
45763;BME280;37512;52.408;13.356;2023-04-15T02:00:31;100042.81;;;7.52;100.00
45763;BME280;37512;52.408;13.356;2023-04-15T02:04:33;100043.13;;;7.66;100.00
45763;BME280;37512;52.408;13.356;2023-04-15T02:08:34;100041.06;;;7.63;100.00
45763;BME280;37512;52.408;13.356;2023-04-15T02:12:35;100038.25;;;7.60;100.00
45763;BME280;37512;52.408;13.356;2023-04-15T02:16:37;100038.75;;;7.65;100.00
45763;BME280;37512;52.408;13.356;2023-04-15T02:20:39;100029.53;;;7.58;100.00
45763;BME280;37512;52.408;13.356;2023-04-15T02:24:40;100029.31;;;7.66;100.00
45763;BME280;37512;52.408;13.356;2023-04-15T02:28:42;100017.50;;;7.50;100.00
45763;BME280;37512;52.408;13.356;2023-04-15T02:32:43;100031.06;;;7.55;100.00
45763;BME280;37512;52.408;13.356;2023-04-15T02:36:45;100034.22;;;7.57;100.00
45763;BME280;37512;52.408;13.356;2023-04-15T02:40:48;100032.72;;;7.60;100.00
45763;BME280;37512;52.408;13.356;2023-04-15T02:44:51;100035.69;;;7.51;100.00
45763;BME280;37512;52.408;13.356;2023-04-15T02:48:52;100034.84;;;7.66;100.00
45763;BME280;37512;52.408;13.356;2023-04-15T02:52:54;100042.81;;;7.52;100.00
45763;BME280;37512;52.408;13.356;2023-04-15T02:56:55;100040.19;;;7.59;100.00
45763;BME280;37512;52.408;13.356;2023-04-15T03:00:57;100035.19;;;7.65;100.00
45763;BME280;37512;52.408;13.356;2023-04-15T03:04:58;100037.09;;;7.61;100.00
45763;BME280;37512;52.408;13.356;2023-04-15T03:09:00;100046.09;;;7.77;100.00
45763;BME280;37512;52.408;13.356;2023-04-15T03:13:02;100047.63;;;7.74;100.00
45763;BME280;37512;52.408;13.356;2023-04-15T03:17:04;100045.31;;;7.77;100.00
45763;BME280;37512;52.408;13.356;2023-04-15T03:21:05;100042.84;;;7.71;100.00
45763;BME280;37512;52.408;13.356;2023-04-15T03:25:07;100038.41;;;7.86;100.00
45763;BME280;37512;52.408;13.356;2023-04-15T03:29:09;100042.25;;;7.82;100.00
45763;BME280;37512;52.408;13.356;2023-04-15T03:33:11;100049.91;;;7.88;100.00
45763;BME280;37512;52.408;13.356;2023-04-15T03:37:12;100045.47;;;7.84;100.00
45763;BME280;37512;52.408;13.356;2023-04-15T03:41:13;100039.06;;;7.80;100.00
45763;BME280;37512;52.408;13.356;2023-04-15T03:45:15;100033.91;;;7.78;100.00
45763;BME280;37512;52.408;13.356;2023-04-15T03:49:16;100041.53;;;7.85;100.00
45763;BME280;37512;52.408;13.356;2023-04-15T03:53:20;100051.13;;;7.91;100.00
45763;BME280;37512;52.408;13.356;2023-04-15T03:57:21;100051.88;;;7.88;100.00
45763;BME280;37512;52.408;13.356;2023-04-15T04:01:23;100046.69;;;7.86;100.00
45763;BME280;37512;52.408;13.356;2023-04-15T04:05:24;100052.00;;;7.95;100.00
45763;BME280;37512;52.408;13.356;2023-04-15T04:09:26;100052.00;;;7.95;100.00
45763;BME280;37512;52.408;13.356;2023-04-15T04:13:28;100050.91;;;8.00;100.00
45763;BME280;37512;52.408;13.356;2023-04-15T04:17:29;100057.53;;;7.95;100.00
45763;BME280;37512;52.408;13.356;2023-04-15T04:21:31;100065.97;;;8.02;100.00
45763;BME280;37512;52.408;13.356;2023-04-15T04:25:34;100064.72;;;8.00;100.00
45763;BME280;37512;52.408;13.356;2023-04-15T04:29:35;100058.91;;;8.05;100.00
45763;BME280;37512;52.408;13.356;2023-04-15T04:33:37;100062.13;;;8.07;100.00
45763;BME280;37512;52.408;13.356;2023-04-15T04:37:38;100052.00;;;7.95;100.00
45763;BME280;37512;52.408;13.356;2023-04-15T04:41:40;100050.91;;;8.19;100.00
45763;BME280;37512;52.408;13.356;2023-04-15T04:45:41;100051.06;;;8.07;100.00
45763;BME280;37512;52.408;13.356;2023-04-15T04:49:43;100061.41;;;8.10;100.00
45763;BME280;37512;52.408;13.356;2023-04-15T04:53:44;100066.69;;;8.18;100.00
45763;BME280;37512;52.408;13.356;2023-04-15T04:57:46;100066.03;;;8.25;100.00
45763;BME280;37512;52.408;13.356;2023-04-15T05:01:47;100063.50;;;8.16;100.00
45763;BME280;37512;52.408;13.356;2023-04-15T05:05:49;100064.78;;;8.23;100.00
45763;BME280;37512;52.408;13.356;2023-04-15T05:09:51;100071.56;;;8.25;100.00
45763;BME280;37512;52.408;13.356;2023-04-15T05:13:52;100079.50;;;8.27;100.00
45763;BME280;37512;52.408;13.356;2023-04-15T05:17:53;100080.00;;;8.32;100.00
45763;BME280;37512;52.408;13.356;2023-04-15T05:21:55;100082.03;;;8.35;100.00
45763;BME280;37512;52.408;13.356;2023-04-15T05:25:56;100087.94;;;8.34;100.00
45763;BME280;37512;52.408;13.356;2023-04-15T05:29:58;100083.28;;;8.38;100.00
45763;BME280;37512;52.408;13.356;2023-04-15T05:34:00;100089.97;;;8.37;100.00
45763;BME280;37512;52.408;13.356;2023-04-15T05:38:01;100082.22;;;8.43;100.00
45763;BME280;37512;52.408;13.356;2023-04-15T05:42:03;100084.84;;;8.39;100.00
45763;BME280;37512;52.408;13.356;2023-04-15T05:46:06;100089.41;;;8.47;100.00
45763;BME280;37512;52.408;13.356;2023-04-15T05:50:09;100087.88;;;8.50;100.00
45763;BME280;37512;52.408;13.356;2023-04-15T05:54:10;100092.56;;;8.69;100.00
45763;BME280;37512;52.408;13.356;2023-04-15T05:58:12;100076.94;;;8.80;100.00
45763;BME280;37512;52.408;13.356;2023-04-15T06:02:14;100083.31;;;8.81;100.00
45763;BME280;37512;52.408;13.356;2023-04-15T06:06:15;100085.56;;;8.98;100.00
45763;BME280;37512;52.408;13.356;2023-04-15T06:10:17;100087.19;;;8.99;100.00
45763;BME280;37512;52.408;13.356;2023-04-15T06:14:18;100081.09;;;8.90;100.00
45763;BME280;37512;52.408;13.356;2023-04-15T06:18:20;100081.56;;;8.95;100.00
45763;BME280;37512;52.408;13.356;2023-04-15T06:22:22;100087.78;;;8.89;100.00
45763;BME280;37512;52.408;13.356;2023-04-15T06:26:23;100080.22;;;9.09;100.00
45763;BME280;37512;52.408;13.356;2023-04-15T06:30:25;100083.41;;;9.11;100.00
45763;BME280;37512;52.408;13.356;2023-04-15T06:34:26;100091.22;;;9.05;100.00
45763;BME280;37512;52.408;13.356;2023-04-15T06:38:28;100105.47;;;9.30;100.00
45763;BME280;37512;52.408;13.356;2023-04-15T06:42:29;100102.66;;;9.27;100.00
45763;BME280;37512;52.408;13.356;2023-04-15T06:46:31;100110.50;;;9.48;100.00
45763;BME280;37512;52.408;13.356;2023-04-15T06:50:32;100118.47;;;9.53;100.00
45763;BME280;37512;52.408;13.356;2023-04-15T06:54:35;100121.78;;;9.62;100.00
45763;BME280;37512;52.408;13.356;2023-04-15T06:58:37;100115.09;;;9.63;100.00
45763;BME280;37512;52.408;13.356;2023-04-15T07:02:39;100120.81;;;9.77;100.00
45763;BME280;37512;52.408;13.356;2023-04-15T07:06:40;100114.53;;;9.80;100.00
45763;BME280;37512;52.408;13.356;2023-04-15T07:10:43;100118.69;;;9.94;100.00
45763;BME280;37512;52.408;13.356;2023-04-15T07:14:44;100127.66;;;10.14;100.00
45763;BME280;37512;52.408;13.356;2023-04-15T07:18:46;100132.78;;;10.12;100.00
45763;BME280;37512;52.408;13.356;2023-04-15T07:22:47;100129.22;;;10.11;100.00
45763;BME280;37512;52.408;13.356;2023-04-15T07:26:49;100144.16;;;10.03;100.00
45763;BME280;37512;52.408;13.356;2023-04-15T07:30:50;100139.38;;;9.73;100.00
45763;BME280;37512;52.408;13.356;2023-04-15T07:34:51;100143.66;;;9.67;100.00
45763;BME280;37512;52.408;13.356;2023-04-15T07:38:53;100151.47;;;9.61;100.00
45763;BME280;37512;52.408;13.356;2023-04-15T07:42:55;100145.13;;;9.61;100.00
45763;BME280;37512;52.408;13.356;2023-04-15T07:46:58;100149.81;;;9.57;100.00
45763;BME280;37512;52.408;13.356;2023-04-15T07:51:00;100145.75;;;9.51;100.00
45763;BME280;37512;52.408;13.356;2023-04-15T07:55:02;100146.50;;;9.48;100.00
45763;BME280;37512;52.408;13.356;2023-04-15T07:59:04;100164.16;;;9.39;100.00
45763;BME280;37512;52.408;13.356;2023-04-15T08:03:06;100164.91;;;9.36;100.00
45763;BME280;37512;52.408;13.356;2023-04-15T08:07:08;100164.31;;;9.47;100.00
45763;BME280;37512;52.408;13.356;2023-04-15T08:11:10;100168.78;;;9.55;100.00
45763;BME280;37512;52.408;13.356;2023-04-15T08:15:11;100166.53;;;9.37;100.00
45763;BME280;37512;52.408;13.356;2023-04-15T08:19:13;100167.69;;;9.36;100.00
45763;BME280;37512;52.408;13.356;2023-04-15T08:23:15;100173.78;;;9.46;100.00
45763;BME280;37512;52.408;13.356;2023-04-15T08:27:16;100176.91;;;9.21;100.00
45763;BME280;37512;52.408;13.356;2023-04-15T08:31:18;100184.38;;;9.17;100.00
45763;BME280;37512;52.408;13.356;2023-04-15T08:35:20;100182.16;;;9.26;100.00
45763;BME280;37512;52.408;13.356;2023-04-15T08:39:22;100182.19;;;9.53;100.00
45763;BME280;37512;52.408;13.356;2023-04-15T08:43:27;100183.69;;;9.47;100.00
45763;BME280;37512;52.408;13.356;2023-04-15T08:47:30;100188.53;;;9.30;100.00
45763;BME280;37512;52.408;13.356;2023-04-15T08:51:32;100182.56;;;9.28;100.00
45763;BME280;37512;52.408;13.356;2023-04-15T08:55:35;100188.97;;;9.32;100.00
45763;BME280;37512;52.408;13.356;2023-04-15T08:59:37;100190.41;;;9.46;100.00
45763;BME280;37512;52.408;13.356;2023-04-15T09:03:39;100189.50;;;9.15;100.00
45763;BME280;37512;52.408;13.356;2023-04-15T09:07:41;100196.25;;;9.40;100.00
45763;BME280;37512;52.408;13.356;2023-04-15T09:11:42;100195.75;;;9.58;100.00
45763;BME280;37512;52.408;13.356;2023-04-15T09:15:44;100204.72;;;9.74;100.00
45763;BME280;37512;52.408;13.356;2023-04-15T09:19:46;100200.59;;;9.64;100.00
45763;BME280;37512;52.408;13.356;2023-04-15T09:24:00;100208.91;;;9.88;100.00
45763;BME280;37512;52.408;13.356;2023-04-15T09:28:02;100215.16;;;9.84;100.00
45763;BME280;37512;52.408;13.356;2023-04-15T09:32:12;100216.16;;;9.73;100.00
45763;BME280;37512;52.408;13.356;2023-04-15T09:36:14;100217.34;;;9.72;100.00
45763;BME280;37512;52.408;13.356;2023-04-15T09:44:37;100234.13;;;9.56;100.00
45763;BME280;37512;52.408;13.356;2023-04-15T09:48:39;100226.84;;;9.48;100.00
45763;BME280;37512;52.408;13.356;2023-04-15T09:52:41;100231.78;;;9.58;100.00
45763;BME280;37512;52.408;13.356;2023-04-15T09:56:44;100243.59;;;9.55;100.00
45763;BME280;37512;52.408;13.356;2023-04-15T10:00:50;100243.44;;;9.71;100.00
45763;BME280;37512;52.408;13.356;2023-04-15T10:04:52;100253.56;;;9.59;100.00
45763;BME280;37512;52.408;13.356;2023-04-15T10:08:56;100257.13;;;9.60;100.00
45763;BME280;37512;52.408;13.356;2023-04-15T10:12:58;100258.19;;;9.52;100.00
45763;BME280;37512;52.408;13.356;2023-04-15T10:17:03;100257.56;;;9.62;100.00
45763;BME280;37512;52.408;13.356;2023-04-15T10:21:06;100264.28;;;9.61;100.00
45763;BME280;37512;52.408;13.356;2023-04-15T10:25:09;100268.28;;;9.63;100.00
45763;BME280;37512;52.408;13.356;2023-04-15T10:29:12;100278.38;;;9.52;100.00
45763;BME280;37512;52.408;13.356;2023-04-15T10:33:16;100274.13;;;9.58;100.00
45763;BME280;37512;52.408;13.356;2023-04-15T10:37:21;100272.50;;;9.57;100.00
45763;BME280;37512;52.408;13.356;2023-04-15T10:41:25;100271.97;;;9.71;100.00
45763;BME280;37512;52.408;13.356;2023-04-15T10:45:33;100280.09;;;9.60;100.00
45763;BME280;37512;52.408;13.356;2023-04-15T10:49:42;100285.88;;;9.52;100.00
45763;BME280;37512;52.408;13.356;2023-04-15T10:53:45;100289.34;;;9.68;100.00
45763;BME280;37512;52.408;13.356;2023-04-15T10:57:52;100286.56;;;9.68;100.00
45763;BME280;37512;52.408;13.356;2023-04-15T11:02:01;100287.66;;;9.63;100.00
45763;BME280;37512;52.408;13.356;2023-04-15T11:06:03;100302.19;;;9.57;100.00
45763;BME280;37512;52.408;13.356;2023-04-15T11:14:14;100309.75;;;9.60;100.00
45763;BME280;37512;52.408;13.356;2023-04-15T11:18:28;100310.50;;;9.57;100.00
45763;BME280;37512;52.408;13.356;2023-04-15T11:22:33;100314.94;;;9.61;100.00
45763;BME280;37512;52.408;13.356;2023-04-15T11:26:34;100319.13;;;9.52;100.00
45763;BME280;37512;52.408;13.356;2023-04-15T11:30:36;100328.75;;;9.58;100.00
45763;BME280;37512;52.408;13.356;2023-04-15T11:34:38;100333.41;;;9.54;100.00
45763;BME280;37512;52.408;13.356;2023-04-15T11:38:43;100335.38;;;9.53;100.00
45763;BME280;37512;52.408;13.356;2023-04-15T11:42:45;100335.00;;;9.55;100.00
45763;BME280;37512;52.408;13.356;2023-04-15T11:46:50;100342.16;;;9.56;100.00
45763;BME280;37512;52.408;13.356;2023-04-15T11:51:02;100350.66;;;9.67;100.00
45763;BME280;37512;52.408;13.356;2023-04-15T11:55:06;100355.25;;;9.78;100.00
45763;BME280;37512;52.408;13.356;2023-04-15T11:59:08;100357.59;;;9.76;100.00
45763;BME280;37512;52.408;13.356;2023-04-15T12:03:11;100357.75;;;9.87;100.00
45763;BME280;37512;52.408;13.356;2023-04-15T12:07:13;100359.41;;;10.15;100.00
45763;BME280;37512;52.408;13.356;2023-04-15T12:15:27;100360.59;;;9.91;100.00
45763;BME280;37512;52.408;13.356;2023-04-15T12:19:34;100366.81;;;10.07;100.00
45763;BME280;37512;52.408;13.356;2023-04-15T12:23:49;100376.56;;;9.97;100.00
45763;BME280;37512;52.408;13.356;2023-04-15T12:27:51;100372.16;;;9.96;100.00
45763;BME280;37512;52.408;13.356;2023-04-15T12:32:11;100377.22;;;10.14;100.00
45763;BME280;37512;52.408;13.356;2023-04-15T12:36:13;100385.91;;;10.12;100.00
45763;BME280;37512;52.408;13.356;2023-04-15T12:40:18;100389.03;;;10.30;100.00
45763;BME280;37512;52.408;13.356;2023-04-15T12:44:23;100379.91;;;10.30;100.00
45763;BME280;37512;52.408;13.356;2023-04-15T12:48:24;100384.09;;;10.20;100.00
45763;BME280;37512;52.408;13.356;2023-04-15T12:52:31;100400.34;;;10.21;100.00
45763;BME280;37512;52.408;13.356;2023-04-15T12:56:34;100396.97;;;10.09;100.00
45763;BME280;37512;52.408;13.356;2023-04-15T13:00:59;100397.34;;;10.30;100.00
45763;BME280;37512;52.408;13.356;2023-04-15T13:05:00;100410.72;;;10.24;100.00
45763;BME280;37512;52.408;13.356;2023-04-15T13:09:02;100398.00;;;10.46;100.00
45763;BME280;37512;52.408;13.356;2023-04-15T13:13:06;100416.41;;;10.32;100.00
45763;BME280;37512;52.408;13.356;2023-04-15T13:17:14;100411.75;;;10.39;100.00
45763;BME280;37512;52.408;13.356;2023-04-15T13:21:18;100408.50;;;10.34;100.00
45763;BME280;37512;52.408;13.356;2023-04-15T13:25:32;100409.00;;;10.39;100.00
45763;BME280;37512;52.408;13.356;2023-04-15T13:29:47;100416.25;;;10.24;100.00
45763;BME280;37512;52.408;13.356;2023-04-15T13:33:49;100414.72;;;10.27;100.00
45763;BME280;37512;52.408;13.356;2023-04-15T13:37:52;100423.50;;;10.29;100.00
45763;BME280;37512;52.408;13.356;2023-04-15T13:41:54;100420.16;;;10.43;100.00
45763;BME280;37512;52.408;13.356;2023-04-15T13:45:56;100432.81;;;10.40;100.00
45763;BME280;37512;52.408;13.356;2023-04-15T13:49:57;100437.22;;;10.22;100.00
45763;BME280;37512;52.408;13.356;2023-04-15T13:53:59;100440.25;;;10.36;100.00
45763;BME280;37512;52.408;13.356;2023-04-15T13:58:00;100449.09;;;10.22;100.00
45763;BME280;37512;52.408;13.356;2023-04-15T14:02:02;100449.09;;;10.22;100.00
45763;BME280;37512;52.408;13.356;2023-04-15T14:06:04;100452.03;;;10.30;100.00
45763;BME280;37512;52.408;13.356;2023-04-15T14:10:06;100459.31;;;10.38;100.00
45763;BME280;37512;52.408;13.356;2023-04-15T14:14:08;100456.03;;;10.32;100.00
45763;BME280;37512;52.408;13.356;2023-04-15T14:18:09;100462.13;;;10.41;100.00
45763;BME280;37512;52.408;13.356;2023-04-15T14:22:11;100466.53;;;10.42;100.00
45763;BME280;37512;52.408;13.356;2023-04-15T14:26:12;100473.59;;;10.40;100.00
45763;BME280;37512;52.408;13.356;2023-04-15T14:30:14;100474.34;;;10.37;100.00
45763;BME280;37512;52.408;13.356;2023-04-15T14:34:16;100482.19;;;10.54;100.00
45763;BME280;37512;52.408;13.356;2023-04-15T14:38:18;100486.94;;;10.54;100.00
45763;BME280;37512;52.408;13.356;2023-04-15T14:42:19;100488.53;;;10.55;100.00
45763;BME280;37512;52.408;13.356;2023-04-15T14:46:21;100499.38;;;10.63;100.00
45763;BME280;37512;52.408;13.356;2023-04-15T14:50:23;100500.00;;;10.53;100.00
45763;BME280;37512;52.408;13.356;2023-04-15T14:54:24;100502.94;;;10.41;100.00
45763;BME280;37512;52.408;13.356;2023-04-15T14:58:26;100506.84;;;10.36;100.00
45763;BME280;37512;52.408;13.356;2023-04-15T15:02:27;100514.63;;;10.50;100.00
45763;BME280;37512;52.408;13.356;2023-04-15T15:06:40;100517.38;;;10.50;100.00
45763;BME280;37512;52.408;13.356;2023-04-15T15:10:42;100512.91;;;10.22;100.00
45763;BME280;37512;52.408;13.356;2023-04-15T15:14:50;100520.47;;;10.25;100.00
45763;BME280;37512;52.408;13.356;2023-04-15T15:18:51;100524.22;;;10.33;100.00
45763;BME280;37512;52.408;13.356;2023-04-15T15:22:53;100537.00;;;10.38;100.00
45763;BME280;37512;52.408;13.356;2023-04-15T15:26:54;100540.34;;;10.47;100.00
45763;BME280;37512;52.408;13.356;2023-04-15T15:31:00;100533.97;;;10.46;100.00
45763;BME280;37512;52.408;13.356;2023-04-15T15:35:01;100545.16;;;10.31;100.00
45763;BME280;37512;52.408;13.356;2023-04-15T15:39:03;100546.34;;;10.30;100.00
45763;BME280;37512;52.408;13.356;2023-04-15T15:43:05;100546.91;;;10.39;100.00
45763;BME280;37512;52.408;13.356;2023-04-15T15:47:07;100548.78;;;10.54;100.00
45763;BME280;37512;52.408;13.356;2023-04-15T15:51:09;100555.59;;;10.37;100.00
45763;BME280;37512;52.408;13.356;2023-04-15T15:55:10;100560.69;;;10.35;100.00
45763;BME280;37512;52.408;13.356;2023-04-15T15:59:12;100559.03;;;10.31;100.00
45763;BME280;37512;52.408;13.356;2023-04-15T16:03:13;100569.09;;;10.39;100.00
45763;BME280;37512;52.408;13.356;2023-04-15T16:07:15;100565.44;;;10.35;100.00
45763;BME280;37512;52.408;13.356;2023-04-15T16:11:17;100570.41;;;10.25;100.00
45763;BME280;37512;52.408;13.356;2023-04-15T16:15:18;100577.00;;;10.37;100.00
45763;BME280;37512;52.408;13.356;2023-04-15T16:19:20;100586.81;;;10.15;100.00
45763;BME280;37512;52.408;13.356;2023-04-15T16:23:22;100588.66;;;10.07;100.00
45763;BME280;37512;52.408;13.356;2023-04-15T16:27:24;100591.59;;;10.34;100.00
45763;BME280;37512;52.408;13.356;2023-04-15T16:31:25;100591.28;;;10.39;100.00
45763;BME280;37512;52.408;13.356;2023-04-15T16:35:27;100597.63;;;10.20;100.00
45763;BME280;37512;52.408;13.356;2023-04-15T16:39:28;100596.09;;;10.22;100.00
45763;BME280;37512;52.408;13.356;2023-04-15T16:43:30;100599.53;;;10.35;100.00
45763;BME280;37512;52.408;13.356;2023-04-15T16:47:31;100600.19;;;10.09;100.00
45763;BME280;37512;52.408;13.356;2023-04-15T16:51:33;100607.13;;;10.19;100.00
45763;BME280;37512;52.408;13.356;2023-04-15T16:55:34;100607.91;;;10.19;100.00
45763;BME280;37512;52.408;13.356;2023-04-15T16:59:36;100608.50;;;10.09;100.00
45763;BME280;37512;52.408;13.356;2023-04-15T17:03:38;100620.78;;;10.08;100.00
45763;BME280;37512;52.408;13.356;2023-04-15T17:07:40;100628.34;;;10.11;100.00
45763;BME280;37512;52.408;13.356;2023-04-15T17:11:41;100634.84;;;10.19;100.00
45763;BME280;37512;52.408;13.356;2023-04-15T17:15:44;100632.56;;;10.05;100.00
45763;BME280;37512;52.408;13.356;2023-04-15T17:19:46;100646.53;;;10.09;100.00
45763;BME280;37512;52.408;13.356;2023-04-15T17:23:49;100646.59;;;10.12;100.00
45763;BME280;37512;52.408;13.356;2023-04-15T17:27:50;100652.38;;;10.23;100.00
45763;BME280;37512;52.408;13.356;2023-04-15T17:31:53;100654.34;;;10.22;100.00
45763;BME280;37512;52.408;13.356;2023-04-15T17:35:56;100657.84;;;10.19;100.00
45763;BME280;37512;52.408;13.356;2023-04-15T17:39:57;100667.78;;;10.20;100.00
45763;BME280;37512;52.408;13.356;2023-04-15T17:43:59;100669.66;;;10.16;100.00
45763;BME280;37512;52.408;13.356;2023-04-15T17:48:01;100672.00;;;10.14;100.00
45763;BME280;37512;52.408;13.356;2023-04-15T17:52:04;100679.00;;;10.08;100.00
45763;BME280;37512;52.408;13.356;2023-04-15T17:56:05;100686.31;;;10.16;100.00
45763;BME280;37512;52.408;13.356;2023-04-15T18:00:08;100695.88;;;10.19;100.00
45763;BME280;37512;52.408;13.356;2023-04-15T18:04:10;100701.56;;;10.26;100.00
45763;BME280;37512;52.408;13.356;2023-04-15T18:08:12;100697.25;;;10.09;100.00
45763;BME280;37512;52.408;13.356;2023-04-15T18:12:14;100700.31;;;10.04;100.00
45763;BME280;37512;52.408;13.356;2023-04-15T18:16:16;100710.66;;;10.07;100.00
45763;BME280;37512;52.408;13.356;2023-04-15T18:20:17;100719.78;;;10.08;100.00
45763;BME280;37512;52.408;13.356;2023-04-15T18:24:19;100735.88;;;10.18;100.00
45763;BME280;37512;52.408;13.356;2023-04-15T18:28:21;100734.72;;;10.03;100.00
45763;BME280;37512;52.408;13.356;2023-04-15T18:32:23;100739.19;;;10.08;100.00
45763;BME280;37512;52.408;13.356;2023-04-15T18:36:25;100743.94;;;10.07;100.00
45763;BME280;37512;52.408;13.356;2023-04-15T18:40:26;100748.16;;;10.01;100.00
45763;BME280;37512;52.408;13.356;2023-04-15T18:44:28;100749.59;;;9.95;100.00
45763;BME280;37512;52.408;13.356;2023-04-15T18:48:30;100758.56;;;9.88;100.00
45763;BME280;37512;52.408;13.356;2023-04-15T18:52:31;100757.47;;;9.93;100.00
45763;BME280;37512;52.408;13.356;2023-04-15T18:56:34;100768.47;;;9.89;100.00
45763;BME280;37512;52.408;13.356;2023-04-15T19:00:35;100772.78;;;9.87;100.00
45763;BME280;37512;52.408;13.356;2023-04-15T19:04:41;100778.03;;;9.92;100.00
45763;BME280;37512;52.408;13.356;2023-04-15T19:08:43;100781.19;;;9.74;100.00
45763;BME280;37512;52.408;13.356;2023-04-15T19:12:44;100793.59;;;9.64;100.00
45763;BME280;37512;52.408;13.356;2023-04-15T19:16:46;100794.16;;;9.86;100.00
45763;BME280;37512;52.408;13.356;2023-04-15T19:20:50;100799.88;;;9.77;100.00
45763;BME280;37512;52.408;13.356;2023-04-15T19:25:10;100800.13;;;9.72;100.00
45763;BME280;37512;52.408;13.356;2023-04-15T19:29:11;100801.03;;;9.76;100.00
45763;BME280;37512;52.408;13.356;2023-04-15T19:33:16;100804.00;;;9.83;100.00
45763;BME280;37512;52.408;13.356;2023-04-15T19:37:18;100807.22;;;9.70;100.00
45763;BME280;37512;52.408;13.356;2023-04-15T19:41:19;100815.06;;;9.68;100.00
45763;BME280;37512;52.408;13.356;2023-04-15T19:45:21;100813.44;;;9.67;100.00
45763;BME280;37512;52.408;13.356;2023-04-15T19:49:24;100826.94;;;9.68;100.00
45763;BME280;37512;52.408;13.356;2023-04-15T19:53:26;100820.63;;;9.68;100.00
45763;BME280;37512;52.408;13.356;2023-04-15T19:57:27;100823.47;;;9.71;100.00
45763;BME280;37512;52.408;13.356;2023-04-15T20:01:29;100825.78;;;9.69;100.00
45763;BME280;37512;52.408;13.356;2023-04-15T20:05:30;100830.44;;;9.65;100.00
45763;BME280;37512;52.408;13.356;2023-04-15T20:09:32;100829.88;;;9.59;100.00
45763;BME280;37512;52.408;13.356;2023-04-15T20:13:33;100833.03;;;9.58;100.00
45763;BME280;37512;52.408;13.356;2023-04-15T20:17:35;100828.00;;;9.48;100.00
45763;BME280;37512;52.408;13.356;2023-04-15T20:21:37;100830.16;;;9.54;100.00
45763;BME280;37512;52.408;13.356;2023-04-15T20:25:40;100832.13;;;9.54;100.00
45763;BME280;37512;52.408;13.356;2023-04-15T20:29:42;100841.69;;;9.56;100.00
45763;BME280;37512;52.408;13.356;2023-04-15T20:33:43;100844.81;;;9.55;100.00
45763;BME280;37512;52.408;13.356;2023-04-15T20:37:45;100851.56;;;9.41;100.00
45763;BME280;37512;52.408;13.356;2023-04-15T20:41:46;100847.66;;;9.42;100.00
45763;BME280;37512;52.408;13.356;2023-04-15T20:45:49;100849.25;;;9.43;100.00
45763;BME280;37512;52.408;13.356;2023-04-15T20:49:52;100845.50;;;9.36;100.00
45763;BME280;37512;52.408;13.356;2023-04-15T20:53:54;100848.09;;;9.45;100.00
45763;BME280;37512;52.408;13.356;2023-04-15T20:57:55;100847.03;;;9.49;100.00
45763;BME280;37512;52.408;13.356;2023-04-15T21:01:58;100854.59;;;9.36;100.00